sensor_id;sensor_type;location;lat;lon;timestamp;pressure;altitude;pressure_sealevel;temperature;humidity
75627;BME280;64211;49.404;11.034;2022-10-16T00:01:26;98027.69;;;15.31;82.79
75627;BME280;64211;49.404;11.034;2022-10-16T00:03:52;98021.75;;;15.29;83.02
75627;BME280;64211;49.404;11.034;2022-10-16T00:06:19;98027.06;;;15.24;83.25
75627;BME280;64211;49.404;11.034;2022-10-16T00:08:46;98027.56;;;15.21;83.06
75627;BME280;64211;49.404;11.034;2022-10-16T00:11:15;98029.47;;;15.21;83.64
75627;BME280;64211;49.404;11.034;2022-10-16T00:13:43;98038.06;;;15.23;82.97
75627;BME280;64211;49.404;11.034;2022-10-16T00:16:10;98035.13;;;15.24;83.41
75627;BME280;64211;49.404;11.034;2022-10-16T00:18:36;98037.56;;;15.26;83.35
75627;BME280;64211;49.404;11.034;2022-10-16T00:21:08;98045.38;;;15.27;83.47
75627;BME280;64211;49.404;11.034;2022-10-16T00:23:34;98047.56;;;15.30;82.96
75627;BME280;64211;49.404;11.034;2022-10-16T00:26:03;98046.50;;;15.31;82.95
75627;BME280;64211;49.404;11.034;2022-10-16T00:28:30;98043.81;;;15.31;82.95
75627;BME280;64211;49.404;11.034;2022-10-16T00:30:56;98052.69;;;15.32;82.98
75627;BME280;64211;49.404;11.034;2022-10-16T00:33:23;98055.88;;;15.29;83.14
75627;BME280;64211;49.404;11.034;2022-10-16T00:35:48;98060.44;;;15.28;83.26
75627;BME280;64211;49.404;11.034;2022-10-16T00:38:16;98058.00;;;15.27;83.44
75627;BME280;64211;49.404;11.034;2022-10-16T00:40:41;98055.56;;;15.25;83.48
75627;BME280;64211;49.404;11.034;2022-10-16T00:43:55;98054.50;;;15.26;83.19
75627;BME280;64211;49.404;11.034;2022-10-16T00:46:02;98047.50;;;15.25;83.97
75627;BME280;64211;49.404;11.034;2022-10-16T00:48:30;98055.25;;;15.22;84.27
75627;BME280;64211;49.404;11.034;2022-10-16T00:50:57;98052.03;;;15.20;84.28
75627;BME280;64211;49.404;11.034;2022-10-16T00:53:24;98048.28;;;15.21;84.10
75627;BME280;64211;49.404;11.034;2022-10-16T00:55:50;98049.59;;;15.18;85.25
75627;BME280;64211;49.404;11.034;2022-10-16T00:58:16;98058.16;;;15.15;84.40
75627;BME280;64211;49.404;11.034;2022-10-16T01:00:42;98053.00;;;15.14;84.07
75627;BME280;64211;49.404;11.034;2022-10-16T01:03:34;98057.81;;;15.12;85.33
75627;BME280;64211;49.404;11.034;2022-10-16T01:09:07;98055.31;;;15.05;85.87
75627;BME280;64211;49.404;11.034;2022-10-16T01:14:29;98066.06;;;15.05;85.00
75627;BME280;64211;49.404;11.034;2022-10-16T01:17:04;98062.56;;;15.04;85.27
75627;BME280;64211;49.404;11.034;2022-10-16T01:22:08;98067.44;;;15.08;85.38
75627;BME280;64211;49.404;11.034;2022-10-16T01:24:40;98068.75;;;15.05;85.25
75627;BME280;64211;49.404;11.034;2022-10-16T01:27:12;98064.19;;;15.05;85.07
75627;BME280;64211;49.404;11.034;2022-10-16T01:29:49;98060.06;;;14.98;86.22
75627;BME280;64211;49.404;11.034;2022-10-16T01:32:41;98056.25;;;14.94;86.08
75627;BME280;64211;49.404;11.034;2022-10-16T01:38:05;98069.13;;;14.92;85.65
75627;BME280;64211;49.404;11.034;2022-10-16T01:40:36;98074.69;;;14.90;86.25
75627;BME280;64211;49.404;11.034;2022-10-16T01:43:15;98079.84;;;14.92;86.59
75627;BME280;64211;49.404;11.034;2022-10-16T01:45:43;98086.59;;;14.94;85.14
75627;BME280;64211;49.404;11.034;2022-10-16T01:48:12;98086.66;;;14.99;85.26
75627;BME280;64211;49.404;11.034;2022-10-16T01:50:41;98088.03;;;15.02;85.02
75627;BME280;64211;49.404;11.034;2022-10-16T01:53:12;98082.44;;;15.03;84.95
75627;BME280;64211;49.404;11.034;2022-10-16T01:55:41;98099.84;;;15.01;85.41
75627;BME280;64211;49.404;11.034;2022-10-16T01:58:11;98099.53;;;14.97;85.71
75627;BME280;64211;49.404;11.034;2022-10-16T02:00:39;98103.03;;;14.98;85.71
75627;BME280;64211;49.404;11.034;2022-10-16T02:03:08;98106.28;;;15.00;85.53
75627;BME280;64211;49.404;11.034;2022-10-16T02:05:44;98102.28;;;15.02;85.45
75627;BME280;64211;49.404;11.034;2022-10-16T02:08:11;98100.41;;;15.03;85.42
75627;BME280;64211;49.404;11.034;2022-10-16T02:10:37;98103.91;;;15.03;85.76
75627;BME280;64211;49.404;11.034;2022-10-16T02:13:09;98101.22;;;15.03;85.82
75627;BME280;64211;49.404;11.034;2022-10-16T02:15:35;98093.72;;;15.05;85.61
75627;BME280;64211;49.404;11.034;2022-10-16T02:18:03;98095.09;;;15.08;85.16
75627;BME280;64211;49.404;11.034;2022-10-16T02:20:33;98096.97;;;15.08;85.37
75627;BME280;64211;49.404;11.034;2022-10-16T02:23:03;98096.97;;;15.08;85.22
75627;BME280;64211;49.404;11.034;2022-10-16T02:25:35;98100.16;;;15.04;85.77
75627;BME280;64211;49.404;11.034;2022-10-16T02:28:13;98097.22;;;15.06;85.14
75627;BME280;64211;49.404;11.034;2022-10-16T02:31:02;98092.91;;;15.05;85.31
75627;BME280;64211;49.404;11.034;2022-10-16T02:33:30;98086.97;;;15.03;85.10
75627;BME280;64211;49.404;11.034;2022-10-16T02:35:57;98082.09;;;15.00;85.53
75627;BME280;64211;49.404;11.034;2022-10-16T02:38:24;98085.84;;;14.99;85.72
75627;BME280;64211;49.404;11.034;2022-10-16T02:40:51;98099.53;;;14.97;85.64
75627;BME280;64211;49.404;11.034;2022-10-16T02:43:17;98092.03;;;14.99;85.03
75627;BME280;64211;49.404;11.034;2022-10-16T02:45:43;98092.03;;;14.99;85.63
75627;BME280;64211;49.404;11.034;2022-10-16T02:48:09;98086.91;;;14.98;85.42
75627;BME280;64211;49.404;11.034;2022-10-16T02:50:35;98078.84;;;14.98;85.61
75627;BME280;64211;49.404;11.034;2022-10-16T02:53:00;98088.22;;;14.95;85.48
75627;BME280;64211;49.404;11.034;2022-10-16T02:55:26;98092.53;;;14.96;85.88
75627;BME280;64211;49.404;11.034;2022-10-16T02:57:53;98094.41;;;14.96;85.83
75627;BME280;64211;49.404;11.034;2022-10-16T03:00:20;98091.72;;;14.96;85.55
75627;BME280;64211;49.404;11.034;2022-10-16T03:02:46;98091.97;;;14.94;86.01
75627;BME280;64211;49.404;11.034;2022-10-16T03:05:13;98094.41;;;14.96;85.63
75627;BME280;64211;49.404;11.034;2022-10-16T03:07:39;98089.28;;;14.94;86.07
75627;BME280;64211;49.404;11.034;2022-10-16T03:10:05;98093.03;;;14.93;85.75
75627;BME280;64211;49.404;11.034;2022-10-16T03:12:31;98089.84;;;14.96;85.77
75627;BME280;64211;49.404;11.034;2022-10-16T03:14:57;98094.16;;;14.97;86.02
75627;BME280;64211;49.404;11.034;2022-10-16T03:17:23;98094.97;;;14.98;85.54
75627;BME280;64211;49.404;11.034;2022-10-16T03:19:49;98099.03;;;15.00;85.49
75627;BME280;64211;49.404;11.034;2022-10-16T03:22:15;98108.97;;;15.00;86.31
75627;BME280;64211;49.404;11.034;2022-10-16T03:24:41;98113.53;;;14.99;86.08
75627;BME280;64211;49.404;11.034;2022-10-16T03:27:07;98104.66;;;14.99;85.86
75627;BME280;64211;49.404;11.034;2022-10-16T03:29:32;98094.97;;;14.98;85.55
75627;BME280;64211;49.404;11.034;2022-10-16T03:31:59;98089.28;;;14.94;85.96
75627;BME280;64211;49.404;11.034;2022-10-16T03:34:25;98095.88;;;14.87;86.78
75627;BME280;64211;49.404;11.034;2022-10-16T03:36:51;98091.50;;;14.81;86.71
75627;BME280;64211;49.404;11.034;2022-10-16T03:39:18;98105.97;;;14.80;86.54
75627;BME280;64211;49.404;11.034;2022-10-16T03:41:44;98105.41;;;14.78;86.41
75627;BME280;64211;49.404;11.034;2022-10-16T03:44:09;98100.06;;;14.78;86.53
75627;BME280;64211;49.404;11.034;2022-10-16T03:46:35;98105.41;;;14.78;86.40
75627;BME280;64211;49.404;11.034;2022-10-16T03:49:01;98109.16;;;14.77;86.48
75627;BME280;64211;49.404;11.034;2022-10-16T03:51:30;98101.91;;;14.77;86.52
75627;BME280;64211;49.404;11.034;2022-10-16T03:53:56;98102.97;;;14.76;86.96
75627;BME280;64211;49.404;11.034;2022-10-16T03:56:22;98109.47;;;14.80;86.55
75627;BME280;64211;49.404;11.034;2022-10-16T03:58:47;98123.22;;;14.84;85.91
75627;BME280;64211;49.404;11.034;2022-10-16T04:01:14;98122.16;;;14.85;86.37
75627;BME280;64211;49.404;11.034;2022-10-16T04:03:40;98118.41;;;14.86;86.17
75627;BME280;64211;49.404;11.034;2022-10-16T04:06:06;98120.03;;;14.87;86.21
75627;BME280;64211;49.404;11.034;2022-10-16T04:08:32;98124.38;;;14.88;85.97
75627;BME280;64211;49.404;11.034;2022-10-16T04:11:00;98128.34;;;14.85;86.27
75627;BME280;64211;49.404;11.034;2022-10-16T04:13:26;98119.97;;;14.82;86.50
75627;BME280;64211;49.404;11.034;2022-10-16T04:15:52;98128.84;;;14.82;86.02
75627;BME280;64211;49.404;11.034;2022-10-16T04:18:17;98131.84;;;14.86;86.45
75627;BME280;64211;49.404;11.034;2022-10-16T04:20:43;98136.16;;;14.87;86.03
75627;BME280;64211;49.404;11.034;2022-10-16T04:23:09;98133.22;;;14.88;86.12
75627;BME280;64211;49.404;11.034;2022-10-16T04:25:35;98136.72;;;14.89;86.42
75627;BME280;64211;49.404;11.034;2022-10-16T04:28:00;98130.28;;;14.90;86.50
75627;BME280;64211;49.404;11.034;2022-10-16T04:30:26;98129.03;;;14.92;86.13
75627;BME280;64211;49.404;11.034;2022-10-16T04:32:52;98127.97;;;14.93;85.85
75627;BME280;64211;49.404;11.034;2022-10-16T04:35:19;98133.91;;;14.95;86.18
75627;BME280;64211;49.404;11.034;2022-10-16T04:37:46;98132.03;;;14.96;86.10
75627;BME280;64211;49.404;11.034;2022-10-16T04:40:12;98127.72;;;14.95;86.33
75627;BME280;64211;49.404;11.034;2022-10-16T04:42:38;98125.53;;;14.92;86.69
75627;BME280;64211;49.404;11.034;2022-10-16T04:45:05;98132.53;;;14.93;86.38
75627;BME280;64211;49.404;11.034;2022-10-16T04:47:31;98131.34;;;14.89;86.53
75627;BME280;64211;49.404;11.034;2022-10-16T04:49:57;98127.88;;;14.88;86.40
75627;BME280;64211;49.404;11.034;2022-10-16T04:52:24;98120.28;;;14.85;86.23
75627;BME280;64211;49.404;11.034;2022-10-16T04:54:50;98126.97;;;14.83;86.49
75627;BME280;64211;49.404;11.034;2022-10-16T04:57:16;98121.34;;;14.84;86.55
75627;BME280;64211;49.404;11.034;2022-10-16T04:59:42;98136.16;;;14.87;86.52
75627;BME280;64211;49.404;11.034;2022-10-16T05:02:08;98127.88;;;14.88;86.07
75627;BME280;64211;49.404;11.034;2022-10-16T05:04:34;98134.53;;;14.86;86.17
75627;BME280;64211;49.404;11.034;2022-10-16T05:06:59;98133.72;;;14.85;86.03
75627;BME280;64211;49.404;11.034;2022-10-16T05:09:25;98130.22;;;14.85;86.08
75627;BME280;64211;49.404;11.034;2022-10-16T05:11:51;98137.47;;;14.84;85.82
75627;BME280;64211;49.404;11.034;2022-10-16T05:14:17;98139.59;;;14.82;86.20
75627;BME280;64211;49.404;11.034;2022-10-16T05:16:42;98138.47;;;14.78;86.15
75627;BME280;64211;49.404;11.034;2022-10-16T05:19:08;98146.19;;;14.74;86.41
75627;BME280;64211;49.404;11.034;2022-10-16T05:21:52;98149.13;;;14.73;86.13
75627;BME280;64211;49.404;11.034;2022-10-16T05:24:18;98149.94;;;14.73;86.27
75627;BME280;64211;49.404;11.034;2022-10-16T05:26:44;98151.25;;;14.71;86.20
75627;BME280;64211;49.404;11.034;2022-10-16T05:29:09;98152.56;;;14.68;85.86
75627;BME280;64211;49.404;11.034;2022-10-16T05:31:35;98151.13;;;14.66;86.41
75627;BME280;64211;49.404;11.034;2022-10-16T05:34:01;98154.88;;;14.65;86.22
75627;BME280;64211;49.404;11.034;2022-10-16T05:36:27;98165.63;;;14.65;86.45
75627;BME280;64211;49.404;11.034;2022-10-16T05:38:53;98162.94;;;14.65;86.55
75627;BME280;64211;49.404;11.034;2022-10-16T05:41:19;98168.31;;;14.65;86.42
75627;BME280;64211;49.404;11.034;2022-10-16T05:43:47;98177.53;;;14.69;86.15
75627;BME280;64211;49.404;11.034;2022-10-16T05:46:13;98186.97;;;14.71;86.19
75627;BME280;64211;49.404;11.034;2022-10-16T05:48:39;98186.22;;;14.76;86.10
75627;BME280;64211;49.404;11.034;2022-10-16T05:51:07;98191.34;;;14.78;86.12
75627;BME280;64211;49.404;11.034;2022-10-16T05:53:34;98197.06;;;14.81;86.08
75627;BME280;64211;49.404;11.034;2022-10-16T05:56:01;98200.06;;;14.85;86.34
75627;BME280;64211;49.404;11.034;2022-10-16T05:58:37;98195.00;;;14.88;85.83
75627;BME280;64211;49.404;11.034;2022-10-16T06:01:05;98192.88;;;14.90;85.98
75627;BME280;64211;49.404;11.034;2022-10-16T06:03:31;98201.53;;;14.92;86.18
75627;BME280;64211;49.404;11.034;2022-10-16T06:05:56;98191.63;;;14.93;85.93
75627;BME280;64211;49.404;11.034;2022-10-16T06:08:23;98197.44;;;14.90;86.17
75627;BME280;64211;49.404;11.034;2022-10-16T06:10:59;98192.31;;;14.88;86.12
75627;BME280;64211;49.404;11.034;2022-10-16T06:13:25;98199.56;;;14.88;86.43
75627;BME280;64211;49.404;11.034;2022-10-16T06:15:51;98197.44;;;14.90;86.67
75627;BME280;64211;49.404;11.034;2022-10-16T06:18:16;98198.63;;;14.94;86.09
75627;BME280;64211;49.404;11.034;2022-10-16T06:20:42;98204.31;;;14.97;86.30
75627;BME280;64211;49.404;11.034;2022-10-16T06:23:08;98207.31;;;15.01;85.71
75627;BME280;64211;49.404;11.034;2022-10-16T06:25:34;98207.16;;;15.08;85.74
75627;BME280;64211;49.404;11.034;2022-10-16T06:27:59;98203.25;;;15.15;85.73
75627;BME280;64211;49.404;11.034;2022-10-16T06:30:25;98206.91;;;15.26;85.33
75627;BME280;64211;49.404;11.034;2022-10-16T06:32:51;98210.22;;;15.33;85.06
75627;BME280;64211;49.404;11.034;2022-10-16T06:35:17;98199.47;;;15.33;85.20
75627;BME280;64211;49.404;11.034;2022-10-16T06:37:42;98207.13;;;15.41;84.53
75627;BME280;64211;49.404;11.034;2022-10-16T06:40:08;98214.50;;;15.51;84.37
75627;BME280;64211;49.404;11.034;2022-10-16T06:42:34;98226.84;;;15.63;84.68
75627;BME280;64211;49.404;11.034;2022-10-16T06:45:00;98218.38;;;15.77;84.49
75627;BME280;64211;49.404;11.034;2022-10-16T06:47:27;98226.59;;;15.87;83.69
75627;BME280;64211;49.404;11.034;2022-10-16T06:49:52;98221.28;;;15.92;83.71
75627;BME280;64211;49.404;11.034;2022-10-16T06:52:19;98225.66;;;15.98;83.19
75627;BME280;64211;49.404;11.034;2022-10-16T06:54:45;98217.84;;;15.96;83.27
75627;BME280;64211;49.404;11.034;2022-10-16T06:57:11;98226.97;;;15.95;83.01
75627;BME280;64211;49.404;11.034;2022-10-16T06:59:36;98232.34;;;15.95;82.28
75627;BME280;64211;49.404;11.034;2022-10-16T07:02:02;98242.50;;;15.88;82.26
75627;BME280;64211;49.404;11.034;2022-10-16T07:04:28;98257.56;;;15.89;82.93
75627;BME280;64211;49.404;11.034;2022-10-16T07:06:54;98255.13;;;15.88;82.21
75627;BME280;64211;49.404;11.034;2022-10-16T07:09:19;98254.31;;;15.87;82.47
75627;BME280;64211;49.404;11.034;2022-10-16T07:11:45;98262.13;;;15.89;82.53
75627;BME280;64211;49.404;11.034;2022-10-16T07:14:18;98273.47;;;15.91;82.55
75627;BME280;64211;49.404;11.034;2022-10-16T07:16:45;98279.72;;;15.96;82.38
75627;BME280;64211;49.404;11.034;2022-10-16T07:19:11;98274.16;;;16.03;82.26
75627;BME280;64211;49.404;11.034;2022-10-16T07:21:39;98270.41;;;16.04;81.97
75627;BME280;64211;49.404;11.034;2022-10-16T07:24:06;98272.47;;;15.97;81.86
75627;BME280;64211;49.404;11.034;2022-10-16T07:26:35;98278.34;;;15.94;81.97
75627;BME280;64211;49.404;11.034;2022-10-16T07:29:01;98280.72;;;15.90;81.76
75627;BME280;64211;49.404;11.034;2022-10-16T07:31:27;98280.97;;;15.89;81.70
75627;BME280;64211;49.404;11.034;2022-10-16T07:33:53;98279.66;;;15.91;81.79
75627;BME280;64211;49.404;11.034;2022-10-16T07:36:20;98288.03;;;15.95;81.96
75627;BME280;64211;49.404;11.034;2022-10-16T07:38:46;98304.81;;;16.02;81.58
75627;BME280;64211;49.404;11.034;2022-10-16T07:41:14;98307.81;;;16.06;81.21
75627;BME280;64211;49.404;11.034;2022-10-16T07:43:46;98296.66;;;16.14;81.35
75627;BME280;64211;49.404;11.034;2022-10-16T07:46:13;98292.63;;;16.16;80.81
75627;BME280;64211;49.404;11.034;2022-10-16T07:48:38;98289.25;;;16.26;80.94
75627;BME280;64211;49.404;11.034;2022-10-16T07:51:06;98294.69;;;16.31;80.61
75627;BME280;64211;49.404;11.034;2022-10-16T07:53:32;98295.88;;;16.40;80.66
75627;BME280;64211;49.404;11.034;2022-10-16T07:56:00;98291.38;;;16.46;80.17
75627;BME280;64211;49.404;11.034;2022-10-16T07:58:27;98288.97;;;16.49;80.40
75627;BME280;64211;49.404;11.034;2022-10-16T08:00:53;98292.78;;;16.53;80.02
75627;BME280;64211;49.404;11.034;2022-10-16T08:03:19;98298.00;;;16.60;79.37
75627;BME280;64211;49.404;11.034;2022-10-16T08:05:45;98309.91;;;16.64;79.74
75627;BME280;64211;49.404;11.034;2022-10-16T08:08:14;98307.84;;;16.71;79.22
75627;BME280;64211;49.404;11.034;2022-10-16T08:10:40;98310.91;;;16.80;79.57
75627;BME280;64211;49.404;11.034;2022-10-16T08:13:06;98317.69;;;16.82;78.84
75627;BME280;64211;49.404;11.034;2022-10-16T08:15:37;98316.91;;;16.87;78.93
75627;BME280;64211;49.404;11.034;2022-10-16T08:18:04;98315.59;;;16.90;79.18
75627;BME280;64211;49.404;11.034;2022-10-16T08:20:32;98322.34;;;16.92;78.55
75627;BME280;64211;49.404;11.034;2022-10-16T08:22:59;98324.53;;;16.95;78.47
75627;BME280;64211;49.404;11.034;2022-10-16T08:25:25;98324.78;;;16.94;78.32
75627;BME280;64211;49.404;11.034;2022-10-16T08:27:51;98331.53;;;16.96;78.62
75627;BME280;64211;49.404;11.034;2022-10-16T08:30:18;98321.38;;;17.03;78.57
75627;BME280;64211;49.404;11.034;2022-10-16T08:32:44;98330.13;;;17.15;78.21
75627;BME280;64211;49.404;11.034;2022-10-16T08:35:11;98324.50;;;17.22;77.43
75627;BME280;64211;49.404;11.034;2022-10-16T08:37:37;98329.47;;;17.30;77.59
75627;BME280;64211;49.404;11.034;2022-10-16T08:40:07;98335.16;;;17.34;77.33
75627;BME280;64211;49.404;11.034;2022-10-16T08:45:32;98324.41;;;17.39;77.13
75627;BME280;64211;49.404;11.034;2022-10-16T08:48:23;98328.50;;;17.46;74.67
75627;BME280;64211;49.404;11.034;2022-10-16T08:50:52;98326.72;;;17.57;76.91
75627;BME280;64211;49.404;11.034;2022-10-16T08:53:24;98324.66;;;17.69;74.88
75627;BME280;64211;49.404;11.034;2022-10-16T08:55:53;98331.25;;;17.84;75.66
75627;BME280;64211;49.404;11.034;2022-10-16T08:58:26;98334.25;;;17.92;75.38
75627;BME280;64211;49.404;11.034;2022-10-16T09:00:55;98335.44;;;18.06;75.28
75627;BME280;64211;49.404;11.034;2022-10-16T09:12:27;98325.84;;;18.31;72.06
75627;BME280;64211;49.404;11.034;2022-10-16T09:15:01;98334.50;;;18.38;72.67
75627;BME280;64211;49.404;11.034;2022-10-16T09:17:44;98342.69;;;18.53;72.83
75627;BME280;64211;49.404;11.034;2022-10-16T09:20:18;98346.00;;;18.65;71.64
75627;BME280;64211;49.404;11.034;2022-10-16T09:22:45;98342.81;;;18.79;72.27
75627;BME280;64211;49.404;11.034;2022-10-16T09:27:53;98350.69;;;18.95;70.86
75627;BME280;64211;49.404;11.034;2022-10-16T09:33:12;98360.13;;;18.88;70.43
75627;BME280;64211;49.404;11.034;2022-10-16T09:38:29;98363.63;;;18.78;70.20
75627;BME280;64211;49.404;11.034;2022-10-16T09:41:00;98373.28;;;18.69;70.86
75627;BME280;64211;49.404;11.034;2022-10-16T09:43:33;98363.78;;;18.56;71.19
75627;BME280;64211;49.404;11.034;2022-10-16T09:46:03;98359.97;;;18.52;71.90
75627;BME280;64211;49.404;11.034;2022-10-16T09:48:36;98352.66;;;18.48;72.18
75627;BME280;64211;49.404;11.034;2022-10-16T09:51:05;98346.94;;;18.39;72.49
75627;BME280;64211;49.404;11.034;2022-10-16T09:53:45;98352.03;;;18.30;72.43
75627;BME280;64211;49.404;11.034;2022-10-16T09:56:20;98362.03;;;18.30;73.07
75627;BME280;64211;49.404;11.034;2022-10-16T09:58:54;98369.59;;;18.33;73.12
75627;BME280;64211;49.404;11.034;2022-10-16T10:01:29;98360.97;;;18.36;73.25
75627;BME280;64211;49.404;11.034;2022-10-16T10:03:57;98368.06;;;18.47;73.51
75627;BME280;64211;49.404;11.034;2022-10-16T10:06:33;98366.25;;;18.63;72.78
75627;BME280;64211;49.404;11.034;2022-10-16T10:09:02;98364.16;;;18.80;72.58
75627;BME280;64211;49.404;11.034;2022-10-16T10:11:47;98365.03;;;19.01;72.14
75627;BME280;64211;49.404;11.034;2022-10-16T10:14:17;98364.28;;;19.21;71.36
75627;BME280;64211;49.404;11.034;2022-10-16T10:16:44;98362.09;;;19.33;71.26
75627;BME280;64211;49.404;11.034;2022-10-16T10:19:18;98368.66;;;19.57;69.86
75627;BME280;64211;49.404;11.034;2022-10-16T10:21:44;98362.97;;;19.79;70.19
75627;BME280;64211;49.404;11.034;2022-10-16T10:24:14;98362.69;;;19.96;68.77
75627;BME280;64211;49.404;11.034;2022-10-16T10:29:31;98365.63;;;20.05;66.38
75627;BME280;64211;49.404;11.034;2022-10-16T10:32:18;98361.84;;;20.11;67.14
75627;BME280;64211;49.404;11.034;2022-10-16T10:40:32;98374.75;;;20.54;65.71
75627;BME280;64211;49.404;11.034;2022-10-16T10:45:47;98369.81;;;20.72;65.51
75627;BME280;64211;49.404;11.034;2022-10-16T10:54:19;98371.06;;;20.95;63.42
75627;BME280;64211;49.404;11.034;2022-10-16T10:57:32;98376.41;;;21.05;63.82
75627;BME280;64211;49.404;11.034;2022-10-16T11:00:03;98375.53;;;21.20;65.12
75627;BME280;64211;49.404;11.034;2022-10-16T11:02:52;98375.81;;;21.18;63.18
75627;BME280;64211;49.404;11.034;2022-10-16T11:08:13;98369.84;;;21.16;63.94
75627;BME280;64211;49.404;11.034;2022-10-16T11:10:54;98370.66;;;21.17;62.80
75627;BME280;64211;49.404;11.034;2022-10-16T11:13:36;98367.91;;;21.27;64.83
75627;BME280;64211;49.404;11.034;2022-10-16T11:16:28;98363.19;;;21.42;63.08
75627;BME280;64211;49.404;11.034;2022-10-16T11:21:22;98365.38;;;21.40;63.77
75627;BME280;64211;49.404;11.034;2022-10-16T11:24:04;98367.47;;;21.49;63.67
75627;BME280;64211;49.404;11.034;2022-10-16T11:26:39;98370.72;;;21.56;63.09
75627;BME280;64211;49.404;11.034;2022-10-16T11:29:13;98371.19;;;21.63;63.73
75627;BME280;64211;49.404;11.034;2022-10-16T11:31:46;98369.72;;;21.75;64.10
75627;BME280;64211;49.404;11.034;2022-10-16T11:34:32;98372.00;;;21.92;61.60
75627;BME280;64211;49.404;11.034;2022-10-16T11:37:20;98367.16;;;21.89;60.82
75627;BME280;64211;49.404;11.034;2022-10-16T11:39:50;98377.22;;;21.89;62.94
75627;BME280;64211;49.404;11.034;2022-10-16T11:42:41;98375.25;;;21.94;63.07
75627;BME280;64211;49.404;11.034;2022-10-16T11:45:54;98371.00;;;22.17;62.70
75627;BME280;64211;49.404;11.034;2022-10-16T11:48:45;98367.75;;;22.39;61.04
75627;BME280;64211;49.404;11.034;2022-10-16T11:51:39;98374.75;;;22.45;60.86
75627;BME280;64211;49.404;11.034;2022-10-16T11:54:21;98373.84;;;22.55;59.79
75627;BME280;64211;49.404;11.034;2022-10-16T11:56:53;98371.19;;;22.74;61.75
75627;BME280;64211;49.404;11.034;2022-10-16T11:59:31;98371.13;;;22.79;58.28
75627;BME280;64211;49.404;11.034;2022-10-16T12:02:17;98381.47;;;22.77;60.14
75627;BME280;64211;49.404;11.034;2022-10-16T12:08:08;98373.94;;;22.45;59.36
75627;BME280;64211;49.404;11.034;2022-10-16T12:10:37;98362.47;;;22.29;60.53
75627;BME280;64211;49.404;11.034;2022-10-16T12:16:22;98376.63;;;22.26;61.73
75627;BME280;64211;49.404;11.034;2022-10-16T12:18:49;98372.00;;;22.26;62.22
75627;BME280;64211;49.404;11.034;2022-10-16T12:21:30;98372.00;;;22.26;61.31
75627;BME280;64211;49.404;11.034;2022-10-16T12:23:58;98365.47;;;22.27;61.39
75627;BME280;64211;49.404;11.034;2022-10-16T12:26:28;98372.00;;;22.26;61.44
75627;BME280;64211;49.404;11.034;2022-10-16T12:28:55;98364.66;;;22.27;61.11
75627;BME280;64211;49.404;11.034;2022-10-16T12:31:22;98368.69;;;22.29;61.12
75627;BME280;64211;49.404;11.034;2022-10-16T12:34:01;98371.19;;;22.26;60.87
75627;BME280;64211;49.404;11.034;2022-10-16T12:36:32;98369.03;;;22.23;60.62
75627;BME280;64211;49.404;11.034;2022-10-16T12:39:00;98364.22;;;22.15;60.73
75627;BME280;64211;49.404;11.034;2022-10-16T12:41:33;98370.75;;;22.14;60.01
75627;BME280;64211;49.404;11.034;2022-10-16T12:44:00;98361.22;;;22.16;61.46
75627;BME280;64211;49.404;11.034;2022-10-16T12:49:22;98357.31;;;22.27;61.24
75627;BME280;64211;49.404;11.034;2022-10-16T12:51:50;98369.44;;;22.35;61.33
75627;BME280;64211;49.404;11.034;2022-10-16T12:54:27;98369.31;;;22.45;60.29
75627;BME280;64211;49.404;11.034;2022-10-16T13:15:47;98389.50;;;23.48;56.43
75627;BME280;64211;49.404;11.034;2022-10-16T13:18:39;98388.22;;;23.41;53.77
75627;BME280;64211;49.404;11.034;2022-10-16T13:21:29;98384.56;;;23.32;54.14
75627;BME280;64211;49.404;11.034;2022-10-16T13:26:53;98384.50;;;22.99;55.05
75627;BME280;64211;49.404;11.034;2022-10-16T13:29:20;98378.88;;;22.90;56.85
75627;BME280;64211;49.404;11.034;2022-10-16T13:31:49;98382.75;;;22.84;57.10
75627;BME280;64211;49.404;11.034;2022-10-16T13:34:21;98385.00;;;22.77;57.56
75627;BME280;64211;49.404;11.034;2022-10-16T13:36:50;98376.63;;;22.74;57.63
75627;BME280;64211;49.404;11.034;2022-10-16T13:39:27;98369.56;;;22.73;58.24
75627;BME280;64211;49.404;11.034;2022-10-16T13:42:05;98377.94;;;22.76;58.31
75627;BME280;64211;49.404;11.034;2022-10-16T13:44:49;98385.78;;;22.83;57.70
75627;BME280;64211;49.404;11.034;2022-10-16T13:47:18;98391.38;;;22.91;57.62
75627;BME280;64211;49.404;11.034;2022-10-16T13:49:44;98395.50;;;22.89;57.66
75627;BME280;64211;49.404;11.034;2022-10-16T13:52:20;98397.47;;;22.83;56.81
75627;BME280;64211;49.404;11.034;2022-10-16T13:54:47;98402.94;;;22.78;57.73
75627;BME280;64211;49.404;11.034;2022-10-16T13:57:14;98400.59;;;22.72;57.82
75627;BME280;64211;49.404;11.034;2022-10-16T13:59:53;98403.06;;;22.68;57.84
75627;BME280;64211;49.404;11.034;2022-10-16T14:02:33;98398.94;;;22.71;56.60
75627;BME280;64211;49.404;11.034;2022-10-16T14:05:02;98398.25;;;22.60;57.02
75627;BME280;64211;49.404;11.034;2022-10-16T14:07:31;98397.28;;;22.51;56.80
75627;BME280;64211;49.404;11.034;2022-10-16T14:10:18;98397.88;;;22.48;56.58
75627;BME280;64211;49.404;11.034;2022-10-16T14:12:55;98391.38;;;22.44;57.31
75627;BME280;64211;49.404;11.034;2022-10-16T14:15:21;98407.75;;;22.39;57.33
75627;BME280;64211;49.404;11.034;2022-10-16T14:17:49;98406.69;;;22.34;57.27
75627;BME280;64211;49.404;11.034;2022-10-16T14:20:16;98410.81;;;22.32;57.89
75627;BME280;64211;49.404;11.034;2022-10-16T14:22:42;98407.03;;;22.28;57.85
75627;BME280;64211;49.404;11.034;2022-10-16T14:27:57;98408.53;;;22.15;57.73
75627;BME280;64211;49.404;11.034;2022-10-16T14:30:24;98412.38;;;22.09;58.25
75627;BME280;64211;49.404;11.034;2022-10-16T14:32:56;98410.78;;;22.03;58.33